createdAt,value
2018-12-21T00:01:53.274Z,86.37
2018-12-21T00:04:21.487Z,86.54
2018-12-21T00:06:49.105Z,86.35
2018-12-21T00:09:16.874Z,86.56
2018-12-21T00:11:44.694Z,86.59
2018-12-21T00:14:12.357Z,86.47
2018-12-21T00:16:39.881Z,86.95
2018-12-21T00:19:07.459Z,86.52
2018-12-21T00:21:35.952Z,86.73
2018-12-21T00:24:03.559Z,86.38
2018-12-21T00:26:31.199Z,86.86
2018-12-21T00:28:58.940Z,86.66
2018-12-21T00:31:31.917Z,86.38
2018-12-21T00:34:04.923Z,85.95
2018-12-21T00:36:37.892Z,85.86
2018-12-21T00:39:12.425Z,85.61
2018-12-21T00:41:39.369Z,85.78
2018-12-21T00:44:26.260Z,85.72
2018-12-21T00:46:56.084Z,85.68
2018-12-21T00:49:23.762Z,85.86
2018-12-21T00:51:51.664Z,85.46
2018-12-21T00:54:19.181Z,86.03
2018-12-21T00:56:46.943Z,86.11
2018-12-21T00:59:14.579Z,85.90
2018-12-21T01:01:42.302Z,85.33
2018-12-21T01:04:09.800Z,84.32
2018-12-21T01:06:37.597Z,84.41
2018-12-21T01:09:05.990Z,84.04
2018-12-21T01:11:33.773Z,84.31
2018-12-21T01:14:01.341Z,83.77
2018-12-21T01:16:28.989Z,83.74
2018-12-21T01:18:56.926Z,83.34
2018-12-21T01:21:24.498Z,82.98
2018-12-21T01:23:52.021Z,83.20
2018-12-21T01:26:19.666Z,82.64
2018-12-21T01:28:47.400Z,82.09
2018-12-21T01:31:14.924Z,82.20
2018-12-21T01:33:42.513Z,82.15
2018-12-21T01:36:10.155Z,82.35
2018-12-21T01:38:37.900Z,81.91
2018-12-21T01:41:05.509Z,81.97
2018-12-21T01:43:33.096Z,81.67
2018-12-21T01:46:00.730Z,81.88
2018-12-21T01:48:28.258Z,81.95
2018-12-21T01:50:55.880Z,82.13
2018-12-21T01:53:23.521Z,81.90
2018-12-21T01:55:51.219Z,81.38
2018-12-21T01:58:18.736Z,81.05
2018-12-21T02:00:46.499Z,80.93
2018-12-21T02:03:14.210Z,80.57
2018-12-21T02:05:41.955Z,80.28
2018-12-21T02:08:09.605Z,80.71
2018-12-21T02:10:37.206Z,80.71
2018-12-21T02:13:04.830Z,80.21
2018-12-21T02:15:32.446Z,80.71
2018-12-21T02:18:00.129Z,79.91
2018-12-21T02:20:27.950Z,80.31
2018-12-21T02:22:55.601Z,80.68
2018-12-21T02:25:23.203Z,80.49
2018-12-21T02:27:50.759Z,80.35
2018-12-21T02:30:18.383Z,80.35
2018-12-21T02:32:46.098Z,80.29
2018-12-21T02:35:13.664Z,80.24
2018-12-21T02:37:41.196Z,80.43
2018-12-21T02:40:08.877Z,80.38
2018-12-21T02:42:36.468Z,80.31
2018-12-21T02:45:04.718Z,80.17
2018-12-21T02:47:32.577Z,80.11
2018-12-21T02:50:00.199Z,79.98
2018-12-21T02:52:27.811Z,80.51
2018-12-21T02:54:55.374Z,80.29
2018-12-21T02:57:22.983Z,81.10
2018-12-21T02:59:50.764Z,81.22
2018-12-21T03:02:18.427Z,81.04
2018-12-21T03:04:46.109Z,81.23
2018-12-21T03:07:13.690Z,81.20
2018-12-21T03:09:41.426Z,81.63
2018-12-21T03:12:09.047Z,81.46
2018-12-21T03:14:36.669Z,81.18
2018-12-21T03:17:04.557Z,81.27
2018-12-21T03:19:32.184Z,81.14
2018-12-21T03:21:59.717Z,80.95
2018-12-21T03:24:27.442Z,80.88
2018-12-21T03:26:54.942Z,81.03
2018-12-21T03:29:22.663Z,81.09
2018-12-21T03:31:50.383Z,81.08
2018-12-21T03:34:18.133Z,80.97
2018-12-21T03:36:45.825Z,80.38
2018-12-21T03:39:13.398Z,80.48
2018-12-21T03:41:41.034Z,79.92
2018-12-21T03:44:08.665Z,79.97
2018-12-21T03:46:36.187Z,79.62
2018-12-21T03:49:03.841Z,79.79
2018-12-21T03:51:31.457Z,79.46
2018-12-21T03:53:59.034Z,79.32
2018-12-21T03:56:26.589Z,78.91
2018-12-21T03:58:54.728Z,78.53
2018-12-21T04:01:22.317Z,78.97
2018-12-21T04:03:49.997Z,78.95
2018-12-21T04:06:17.562Z,78.37
2018-12-21T04:08:45.129Z,78.93
2018-12-21T04:11:12.886Z,79.29
2018-12-21T04:13:40.940Z,79.32
2018-12-21T04:16:08.705Z,79.17
2018-12-21T04:18:36.572Z,78.85
2018-12-21T04:21:04.241Z,79.24
2018-12-21T04:23:31.827Z,78.67
2018-12-21T04:25:59.370Z,79.24
2018-12-21T04:28:26.943Z,79.27
2018-12-21T04:30:54.634Z,79.22
2018-12-21T04:33:22.133Z,79.91
2018-12-21T04:35:49.725Z,79.85
2018-12-21T04:38:17.285Z,80.37
2018-12-21T04:40:44.845Z,80.00
2018-12-21T04:43:12.490Z,80.57
2018-12-21T04:45:40.039Z,80.71
2018-12-21T04:48:07.739Z,81.55
2018-12-21T04:50:35.497Z,81.22
2018-12-21T04:53:03.156Z,81.14
2018-12-21T04:55:30.761Z,81.50
2018-12-21T04:57:58.323Z,81.57
2018-12-21T05:00:25.978Z,81.57
2018-12-21T05:02:53.568Z,81.18
2018-12-21T05:05:21.134Z,80.48
2018-12-21T05:07:48.694Z,80.00
2018-12-21T05:10:16.363Z,80.31
2018-12-21T05:12:44.356Z,80.17
2018-12-21T05:15:11.914Z,79.73
2018-12-21T05:17:39.598Z,79.04
2018-12-21T05:20:07.240Z,79.05
2018-12-21T05:22:34.924Z,78.37
2018-12-21T05:25:02.816Z,78.20
2018-12-21T05:27:30.364Z,77.74
2018-12-21T05:29:58.095Z,78.06
2018-12-21T05:32:25.706Z,77.45
2018-12-21T05:34:53.304Z,77.70
2018-12-21T05:37:21.042Z,76.77
2018-12-21T05:39:48.567Z,76.44
2018-12-21T05:42:17.207Z,76.39
2018-12-21T05:44:44.755Z,76.58
2018-12-21T05:47:12.403Z,75.81
2018-12-21T05:49:40.046Z,75.47
2018-12-21T05:52:07.568Z,74.98
2018-12-21T05:54:35.182Z,75.09
2018-12-21T05:57:03.070Z,74.34
2018-12-21T05:59:30.655Z,74.67
2018-12-21T06:01:58.313Z,74.42
2018-12-21T06:04:25.811Z,74.10
2018-12-21T06:06:53.395Z,73.12
2018-12-21T06:09:21.194Z,73.34
2018-12-21T06:11:48.746Z,73.18
2018-12-21T06:14:16.417Z,73.29
2018-12-21T06:16:44.070Z,73.24
2018-12-21T06:19:12.329Z,73.04
2018-12-21T06:21:40.198Z,72.92
2018-12-21T06:24:07.819Z,72.53
2018-12-21T06:26:35.309Z,72.35
2018-12-21T06:29:02.837Z,73.00
2018-12-21T06:31:30.547Z,72.24
2018-12-21T06:33:58.137Z,72.31
2018-12-21T06:36:25.905Z,71.81
2018-12-21T06:38:53.622Z,71.99
2018-12-21T06:41:21.198Z,73.14
2018-12-21T06:43:48.753Z,74.19
2018-12-21T06:46:16.310Z,73.96
2018-12-21T06:48:44.625Z,75.07
2018-12-21T06:51:12.240Z,74.99
2018-12-21T06:53:39.852Z,74.91
2018-12-21T06:56:07.495Z,76.58
2018-12-21T06:58:35.137Z,77.86
2018-12-21T07:01:02.817Z,79.40
2018-12-21T07:03:30.325Z,80.48
2018-12-21T07:05:57.989Z,82.01
2018-12-21T07:08:25.765Z,81.58
2018-12-21T07:10:53.379Z,81.31
2018-12-21T07:13:21.341Z,82.28
2018-12-21T07:15:52.833Z,82.22
2018-12-21T07:18:23.398Z,82.60
2018-12-21T07:20:54.406Z,82.58
2018-12-21T07:23:27.626Z,83.18
2018-12-21T07:25:58.016Z,84.53
2018-12-21T07:28:28.755Z,83.43
2018-12-21T07:31:04.314Z,84.61
2018-12-21T07:33:35.582Z,85.05
2018-12-21T07:36:08.587Z,84.16
2018-12-21T07:38:37.427Z,84.63
2018-12-21T07:41:06.276Z,85.19
2018-12-21T07:43:35.662Z,85.42
2018-12-21T07:46:06.277Z,85.88
2018-12-21T07:48:36.531Z,86.39
2018-12-21T07:51:07.011Z,86.80
2018-12-21T07:53:36.844Z,88.47
2018-12-21T07:56:08.908Z,88.77
2018-12-21T07:58:36.594Z,89.45
2018-12-21T08:01:04.287Z,90.99
2018-12-21T08:03:31.889Z,91.77
2018-12-21T08:05:59.489Z,92.31
2018-12-21T08:08:27.259Z,92.90
2018-12-21T08:10:54.883Z,92.43
2018-12-21T08:13:22.587Z,92.73
2018-12-21T08:15:50.111Z,93.04
2018-12-21T08:18:17.666Z,92.06
2018-12-21T08:20:45.205Z,92.83
2018-12-21T08:23:12.870Z,92.53
2018-12-21T08:25:40.418Z,93.32
2018-12-21T08:28:07.906Z,92.93
2018-12-21T08:30:35.468Z,93.45
2018-12-21T08:33:03.064Z,92.58
2018-12-21T08:35:30.722Z,91.79
2018-12-21T08:37:58.393Z,92.02
2018-12-21T08:40:26.021Z,92.28
2018-12-21T08:42:53.587Z,91.74
2018-12-21T08:45:21.127Z,93.05
2018-12-21T08:47:50.101Z,92.10
2018-12-21T08:50:26.897Z,91.92
2018-12-21T08:52:56.287Z,92.00
2018-12-21T08:55:28.106Z,91.83
2018-12-21T08:58:13.944Z,92.78
2018-12-21T09:00:45.199Z,92.70
2018-12-21T09:03:14.298Z,92.28
2018-12-21T09:05:45.776Z,92.87
2018-12-21T09:08:16.808Z,92.85
2018-12-21T09:10:49.411Z,92.78
2018-12-21T09:13:19.001Z,92.49
2018-12-21T09:15:49.304Z,92.83
2018-12-21T09:18:19.480Z,92.82
2018-12-21T09:20:49.616Z,92.07
2018-12-21T09:23:19.179Z,92.23
2018-12-21T09:25:48.958Z,91.68
2018-12-21T09:28:19.251Z,91.90
2018-12-21T09:30:52.812Z,91.54
2018-12-21T09:33:22.225Z,91.21
2018-12-21T09:35:53.404Z,90.93
2018-12-21T09:38:24.247Z,90.73
2018-12-21T09:41:08.496Z,91.55
2018-12-21T09:43:38.158Z,90.82
2018-12-21T09:46:07.253Z,90.01
2018-12-21T09:48:37.289Z,89.39
2018-12-21T09:51:06.826Z,89.05
2018-12-21T09:53:38.644Z,90.01
2018-12-21T09:56:07.249Z,89.95
2018-12-21T09:58:35.027Z,90.11
2018-12-21T10:01:02.838Z,89.97
2018-12-21T10:03:30.475Z,90.22
2018-12-21T10:05:58.289Z,90.27
2018-12-21T10:08:26.020Z,90.72
2018-12-21T10:10:53.638Z,90.11
2018-12-21T10:13:21.235Z,90.58
2018-12-21T10:15:48.864Z,90.06
2018-12-21T10:18:16.402Z,90.55
2018-12-21T10:20:43.953Z,91.27
2018-12-21T10:23:11.622Z,91.10
2018-12-21T10:25:39.237Z,91.82
2018-12-21T10:28:06.912Z,91.09
2018-12-21T10:30:34.593Z,90.36
2018-12-21T10:33:02.113Z,91.12
2018-12-21T10:35:29.791Z,91.42
2018-12-21T10:37:57.533Z,93.57
2018-12-21T10:40:25.120Z,95.24
2018-12-21T10:42:52.767Z,94.60
2018-12-21T10:45:20.314Z,92.90
2018-12-21T10:47:47.883Z,93.88
2018-12-21T10:50:15.405Z,91.64
2018-12-21T10:52:43.093Z,92.25
2018-12-21T10:55:10.822Z,92.04
2018-12-21T10:57:38.475Z,92.84
2018-12-21T11:00:08.297Z,93.58
2018-12-21T11:02:35.801Z,94.12
2018-12-21T11:05:03.555Z,95.22
2018-12-21T11:07:31.109Z,95.76
2018-12-21T11:09:58.634Z,96.72
2018-12-21T11:12:26.246Z,99.23
2018-12-21T11:14:54.008Z,100.00
2018-12-21T11:17:21.868Z,100.00
2018-12-21T11:19:49.516Z,100.00
2018-12-21T11:22:17.047Z,100.00
2018-12-21T11:24:44.655Z,100.00
2018-12-21T11:27:12.437Z,100.00
2018-12-21T11:29:40.216Z,100.00
2018-12-21T11:32:07.836Z,99.02
2018-12-21T11:34:35.396Z,97.58
2018-12-21T11:37:03.658Z,96.40
2018-12-21T11:39:31.427Z,97.85
2018-12-21T11:41:59.114Z,98.20
2018-12-21T11:44:26.821Z,96.81
2018-12-21T11:46:54.558Z,97.25
2018-12-21T11:49:22.143Z,96.98
2018-12-21T11:51:49.822Z,96.51
2018-12-21T11:54:17.335Z,97.01
2018-12-21T11:56:45.094Z,97.81
2018-12-21T11:59:12.681Z,97.42
2018-12-21T12:01:40.230Z,97.63
2018-12-21T12:04:07.879Z,97.72
2018-12-21T12:06:35.664Z,97.81
2018-12-21T12:09:06.405Z,97.94
2018-12-21T12:11:34.313Z,97.40
2018-12-21T12:14:01.889Z,97.18
2018-12-21T12:16:29.457Z,97.16
2018-12-21T12:18:57.498Z,97.11
2018-12-21T12:21:24.989Z,96.96
2018-12-21T12:23:52.721Z,97.08
2018-12-21T12:26:20.239Z,97.12
2018-12-21T12:28:47.759Z,97.02
2018-12-21T12:31:15.331Z,96.67
2018-12-21T12:33:42.834Z,96.46
2018-12-21T12:36:10.371Z,96.03
2018-12-21T12:38:37.991Z,95.78
2018-12-21T12:41:06.781Z,95.87
2018-12-21T12:43:34.660Z,95.03
2018-12-21T12:46:02.848Z,94.90
2018-12-21T12:48:30.538Z,95.35
2018-12-21T12:50:58.616Z,95.03
2018-12-21T12:53:26.231Z,94.99
2018-12-21T12:55:53.894Z,94.88
2018-12-21T12:58:21.432Z,95.33
2018-12-21T13:00:49.041Z,94.66
2018-12-21T13:03:16.597Z,94.44
2018-12-21T13:05:44.200Z,94.39
2018-12-21T13:08:11.834Z,94.89
2018-12-21T13:10:39.412Z,93.98
2018-12-21T13:13:07.159Z,93.72
2018-12-21T13:15:34.705Z,93.76
2018-12-21T13:18:02.343Z,93.13
2018-12-21T13:20:29.977Z,93.30
2018-12-21T13:22:57.794Z,92.87
2018-12-21T13:25:25.397Z,92.53
2018-12-21T13:27:53.085Z,92.38
2018-12-21T13:30:20.641Z,92.96
2018-12-21T13:32:48.200Z,93.46
2018-12-21T13:35:15.807Z,93.49
2018-12-21T13:37:43.472Z,93.36
2018-12-21T13:40:11.830Z,93.60
2018-12-21T13:42:39.441Z,93.76
2018-12-21T13:45:08.487Z,94.29
2018-12-21T13:47:36.047Z,94.52
2018-12-21T13:50:03.838Z,94.12
2018-12-21T13:52:31.521Z,94.75
2018-12-21T13:54:59.125Z,95.88
2018-12-21T13:57:26.763Z,95.69
2018-12-21T13:59:54.325Z,96.48
2018-12-21T14:02:21.869Z,96.54
2018-12-21T14:04:49.655Z,96.94
2018-12-21T14:07:17.172Z,97.01
2018-12-21T14:09:44.820Z,97.56
2018-12-21T14:12:12.333Z,97.39
2018-12-21T14:14:39.866Z,98.10
2018-12-21T14:17:07.462Z,98.13
2018-12-21T14:19:35.001Z,98.05
2018-12-21T14:22:02.523Z,98.23
2018-12-21T14:24:30.124Z,97.73
2018-12-21T14:26:57.601Z,98.15
2018-12-21T14:29:25.123Z,98.34
2018-12-21T14:31:52.754Z,98.76
2018-12-21T14:34:20.465Z,98.96
2018-12-21T14:36:48.086Z,99.20
2018-12-21T14:39:15.665Z,99.44
2018-12-21T14:41:43.247Z,99.67
2018-12-21T14:44:10.944Z,99.67
2018-12-21T14:46:38.445Z,99.92
2018-12-21T14:49:06.017Z,100.00
2018-12-21T14:51:33.537Z,100.00
2018-12-21T14:54:01.158Z,100.00
2018-12-21T14:56:28.874Z,100.00
2018-12-21T14:58:56.579Z,99.83
2018-12-21T15:01:24.183Z,99.45
2018-12-21T15:03:51.798Z,99.74
2018-12-21T15:06:19.606Z,99.22
2018-12-21T15:08:47.187Z,98.76
2018-12-21T15:11:15.945Z,99.18
2018-12-21T15:13:43.563Z,98.83
2018-12-21T15:16:11.117Z,99.29
2018-12-21T15:18:38.782Z,100.00
2018-12-21T15:21:06.277Z,99.49
2018-12-21T15:23:33.885Z,99.02
2018-12-21T15:26:01.451Z,99.30
2018-12-21T15:28:29.737Z,99.25
2018-12-21T15:30:57.221Z,99.07
2018-12-21T15:33:24.882Z,98.80
2018-12-21T15:35:52.531Z,100.00
2018-12-21T15:38:20.069Z,100.00
2018-12-21T15:40:47.638Z,100.00
2018-12-21T15:43:15.169Z,100.00
2018-12-21T15:45:42.817Z,100.00
2018-12-21T15:48:10.480Z,100.00
2018-12-21T15:50:38.030Z,100.00
2018-12-21T15:53:05.656Z,100.00
2018-12-21T15:55:33.291Z,100.00
2018-12-21T15:58:00.848Z,100.00
2018-12-21T16:00:28.609Z,100.00
2018-12-21T16:02:56.886Z,100.00
2018-12-21T16:05:24.635Z,100.00
2018-12-21T16:07:52.170Z,99.90
2018-12-21T16:10:19.771Z,98.66
2018-12-21T16:12:47.354Z,97.66
2018-12-21T16:15:14.917Z,96.06
2018-12-21T16:17:42.515Z,95.97
2018-12-21T16:20:11.766Z,94.80
2018-12-21T16:22:42.539Z,94.38
2018-12-21T16:25:09.141Z,93.93
2018-12-21T16:27:36.764Z,93.18
2018-12-21T16:30:04.863Z,93.73
2018-12-21T16:32:32.437Z,93.20
2018-12-21T16:34:59.971Z,93.19
2018-12-21T16:37:27.519Z,93.17
2018-12-21T16:39:55.105Z,92.71
2018-12-21T16:42:22.665Z,92.04
2018-12-21T16:44:50.287Z,92.19
2018-12-21T16:47:17.911Z,91.47
2018-12-21T16:49:45.549Z,91.40
2018-12-21T16:52:13.958Z,91.07
2018-12-21T16:54:41.629Z,90.80
2018-12-21T16:57:09.277Z,90.50
2018-12-21T16:59:37.005Z,89.96
2018-12-21T17:02:04.881Z,89.50
2018-12-21T17:04:32.413Z,88.90
2018-12-21T17:07:00.140Z,88.70
2018-12-21T17:09:27.853Z,88.72
2018-12-21T17:11:55.543Z,87.73
2018-12-21T17:14:23.329Z,87.88
2018-12-21T17:16:50.986Z,87.17
2018-12-21T17:19:20.076Z,88.01
2018-12-21T17:21:47.879Z,87.89
2018-12-21T17:24:15.501Z,86.93
2018-12-21T17:26:44.546Z,86.83
2018-12-21T17:29:12.127Z,86.99
2018-12-21T17:31:40.012Z,86.72
2018-12-21T17:34:07.574Z,86.23
2018-12-21T17:36:35.141Z,86.45
2018-12-21T17:39:03.380Z,86.77
2018-12-21T17:41:30.996Z,86.20
2018-12-21T17:43:58.565Z,85.96
2018-12-21T17:46:26.352Z,85.88
2018-12-21T17:48:54.069Z,86.09
2018-12-21T17:51:21.597Z,86.19
2018-12-21T17:53:49.328Z,85.56
2018-12-21T17:56:16.901Z,85.94
2018-12-21T17:58:44.701Z,85.81
2018-12-21T18:01:12.375Z,85.85
2018-12-21T18:03:43.036Z,85.69
2018-12-21T18:06:10.692Z,86.15
2018-12-21T18:08:38.357Z,85.77
2018-12-21T18:11:06.009Z,85.73
2018-12-21T18:13:33.630Z,85.85
2018-12-21T18:16:01.218Z,85.57
2018-12-21T18:18:28.765Z,85.47
2018-12-21T18:20:56.413Z,85.70
2018-12-21T18:23:24.313Z,85.10
2018-12-21T18:25:52.169Z,85.50
2018-12-21T18:28:22.233Z,85.22
2018-12-21T18:30:51.079Z,85.03
2018-12-21T18:33:20.547Z,84.79
2018-12-21T18:35:48.097Z,85.58
2018-12-21T18:38:17.513Z,84.96
2018-12-21T18:40:45.218Z,85.58
2018-12-21T18:43:12.928Z,85.35
2018-12-21T18:45:40.726Z,85.01
2018-12-21T18:48:08.289Z,84.96
2018-12-21T18:50:35.813Z,85.62
2018-12-21T18:53:03.455Z,85.92
2018-12-21T18:55:31.087Z,85.78
2018-12-21T18:57:58.729Z,85.65
2018-12-21T19:00:26.399Z,85.65
2018-12-21T19:02:54.413Z,85.49
2018-12-21T19:05:22.058Z,85.65
2018-12-21T19:07:49.569Z,86.02
2018-12-21T19:10:17.264Z,86.76
2018-12-21T19:12:45.085Z,86.62
2018-12-21T19:15:12.766Z,86.68
2018-12-21T19:17:41.099Z,86.09
2018-12-21T19:20:10.063Z,86.74
2018-12-21T19:22:37.758Z,87.83
2018-12-21T19:25:06.032Z,87.82
2018-12-21T19:27:33.663Z,88.49
2018-12-21T19:30:01.320Z,88.32
2018-12-21T19:32:29.085Z,88.76
2018-12-21T19:34:56.657Z,87.92
2018-12-21T19:37:24.287Z,88.72
2018-12-21T19:39:51.799Z,87.71
2018-12-21T19:42:19.447Z,88.50
2018-12-21T19:44:47.162Z,88.51
2018-12-21T19:47:15.200Z,88.79
2018-12-21T19:49:43.100Z,89.14
2018-12-21T19:52:10.768Z,88.49
2018-12-21T19:54:38.445Z,88.52
2018-12-21T19:57:08.169Z,89.06
2018-12-21T19:59:36.036Z,89.68
2018-12-21T20:02:03.938Z,89.41
2018-12-21T20:04:31.639Z,89.20
2018-12-21T20:06:59.286Z,89.30
2018-12-21T20:09:26.872Z,89.35
2018-12-21T20:11:54.537Z,89.52
2018-12-21T20:14:22.065Z,88.90
2018-12-21T20:16:49.635Z,88.93
2018-12-21T20:19:17.591Z,88.53
2018-12-21T20:21:45.115Z,88.53
2018-12-21T20:24:12.776Z,88.22
2018-12-21T20:26:41.783Z,88.61
2018-12-21T20:29:09.489Z,88.46
2018-12-21T20:31:37.562Z,88.40
2018-12-21T20:34:05.292Z,88.70
2018-12-21T20:36:32.902Z,89.19
2018-12-21T20:39:00.648Z,89.12
2018-12-21T20:41:28.356Z,89.19
2018-12-21T20:43:56.042Z,88.85
2018-12-21T20:46:23.992Z,88.58
2018-12-21T20:48:51.719Z,88.92
2018-12-21T20:51:19.378Z,88.38
2018-12-21T20:53:47.078Z,88.11
2018-12-21T20:56:14.832Z,88.35
2018-12-21T20:58:46.573Z,88.79
2018-12-21T21:01:14.229Z,88.71
2018-12-21T21:03:42.313Z,89.05
2018-12-21T21:06:10.090Z,89.52
2018-12-21T21:08:38.034Z,89.58
2018-12-21T21:11:06.944Z,89.55
2018-12-21T21:13:34.574Z,90.04
2018-12-21T21:16:02.294Z,90.20
2018-12-21T21:18:29.912Z,90.64
2018-12-21T21:20:57.559Z,90.75
2018-12-21T21:23:25.127Z,92.30
2018-12-21T21:25:52.767Z,91.54
2018-12-21T21:28:20.554Z,91.41
2018-12-21T21:30:48.097Z,91.76
2018-12-21T21:33:15.799Z,91.51
2018-12-21T21:35:43.486Z,90.65
2018-12-21T21:38:10.981Z,90.60
2018-12-21T21:40:39.261Z,90.79
2018-12-21T21:43:08.847Z,90.73
2018-12-21T21:45:36.465Z,90.12
2018-12-21T21:48:04.104Z,90.55
2018-12-21T21:50:31.642Z,90.44
2018-12-21T21:52:59.280Z,90.87
2018-12-21T21:55:26.918Z,94.62
2018-12-21T21:57:54.464Z,98.49
2018-12-21T22:00:21.989Z,100.00
2018-12-21T22:02:49.572Z,100.00
2018-12-21T22:05:17.238Z,100.00
2018-12-21T22:07:44.875Z,100.00
2018-12-21T22:10:12.425Z,100.00
2018-12-21T22:12:39.983Z,100.00
2018-12-21T22:15:08.737Z,100.00
2018-12-21T22:17:36.459Z,100.00
2018-12-21T22:20:04.654Z,100.00
2018-12-21T22:22:32.436Z,100.00
2018-12-21T22:25:00.045Z,100.00
2018-12-21T22:27:27.703Z,100.00
2018-12-21T22:29:56.089Z,100.00
2018-12-21T22:32:24.010Z,100.00
2018-12-21T22:34:51.887Z,100.00
2018-12-21T22:37:19.437Z,100.00
2018-12-21T22:39:47.047Z,100.00
2018-12-21T22:42:14.933Z,100.00
2018-12-21T22:44:42.879Z,100.00
2018-12-21T22:47:10.413Z,100.00
2018-12-21T22:49:38.211Z,100.00
2018-12-21T22:52:05.743Z,100.00
2018-12-21T22:54:33.327Z,100.00
2018-12-21T22:57:00.933Z,100.00
2018-12-21T22:59:28.469Z,100.00
2018-12-21T23:01:56.222Z,100.00
2018-12-21T23:04:23.931Z,100.00
2018-12-21T23:06:51.683Z,100.00
2018-12-21T23:09:19.416Z,100.00
2018-12-21T23:11:47.122Z,100.00
2018-12-21T23:14:15.066Z,100.00
2018-12-21T23:16:42.872Z,100.00
2018-12-21T23:19:10.423Z,100.00
2018-12-21T23:21:38.333Z,100.00
2018-12-21T23:24:06.173Z,100.00
2018-12-21T23:26:33.920Z,100.00
2018-12-21T23:29:01.826Z,100.00
2018-12-21T23:31:29.461Z,100.00
2018-12-21T23:33:57.046Z,100.00
2018-12-21T23:36:24.753Z,100.00
2018-12-21T23:38:52.983Z,100.00
2018-12-21T23:41:20.853Z,100.00
2018-12-21T23:43:48.510Z,100.00
2018-12-21T23:46:18.365Z,100.00
2018-12-21T23:48:46.384Z,100.00
2018-12-21T23:51:14.459Z,100.00
2018-12-21T23:53:43.009Z,100.00
2018-12-21T23:56:12.045Z,100.00
2018-12-21T23:58:42.846Z,100.00
